sensor_id;sensor_type;location;lat;lon;timestamp;P1;durP1;ratioP1;P2;durP2;ratioP2
28629;SDS011;15817;42.130;24.762;2023-05-07T00:03:03;5.80;;;3.72;;
28629;SDS011;15817;42.130;24.762;2023-05-07T00:05:31;6.75;;;3.47;;
28629;SDS011;15817;42.130;24.762;2023-05-07T00:08:16;5.00;;;3.28;;
28629;SDS011;15817;42.130;24.762;2023-05-07T00:10:45;7.60;;;3.80;;
28629;SDS011;15817;42.130;24.762;2023-05-07T00:13:19;8.40;;;3.92;;
28629;SDS011;15817;42.130;24.762;2023-05-07T00:15:56;5.65;;;3.25;;
28629;SDS011;15817;42.130;24.762;2023-05-07T00:19:07;6.30;;;3.65;;
28629;SDS011;15817;42.130;24.762;2023-05-07T00:21:41;5.47;;;3.05;;
28629;SDS011;15817;42.130;24.762;2023-05-07T00:24:21;5.95;;;3.45;;
28629;SDS011;15817;42.130;24.762;2023-05-07T00:26:57;5.28;;;3.05;;
28629;SDS011;15817;42.130;24.762;2023-05-07T00:32:16;6.00;;;3.42;;
28629;SDS011;15817;42.130;24.762;2023-05-07T00:34:58;5.43;;;3.58;;
28629;SDS011;15817;42.130;24.762;2023-05-07T00:37:32;5.63;;;3.30;;
28629;SDS011;15817;42.130;24.762;2023-05-07T00:40:09;5.38;;;3.40;;
28629;SDS011;15817;42.130;24.762;2023-05-07T00:43:15;4.70;;;3.97;;
28629;SDS011;15817;42.130;24.762;2023-05-07T00:46:00;7.63;;;3.85;;
28629;SDS011;15817;42.130;24.762;2023-05-07T00:48:51;5.75;;;3.45;;
28629;SDS011;15817;42.130;24.762;2023-05-07T00:51:20;5.70;;;3.40;;
28629;SDS011;15817;42.130;24.762;2023-05-07T00:53:54;5.45;;;3.60;;
28629;SDS011;15817;42.130;24.762;2023-05-07T00:56:42;7.78;;;3.38;;
28629;SDS011;15817;42.130;24.762;2023-05-07T00:59:15;6.93;;;3.33;;
28629;SDS011;15817;42.130;24.762;2023-05-07T01:02:51;5.40;;;3.38;;
28629;SDS011;15817;42.130;24.762;2023-05-07T01:05:25;7.60;;;3.47;;
28629;SDS011;15817;42.130;24.762;2023-05-07T01:08:05;5.85;;;3.63;;
28629;SDS011;15817;42.130;24.762;2023-05-07T01:10:35;4.68;;;3.22;;
28629;SDS011;15817;42.130;24.762;2023-05-07T01:13:03;7.72;;;3.70;;
28629;SDS011;15817;42.130;24.762;2023-05-07T01:15:30;5.70;;;3.30;;
28629;SDS011;15817;42.130;24.762;2023-05-07T01:17:58;5.43;;;3.60;;
28629;SDS011;15817;42.130;24.762;2023-05-07T01:20:30;5.50;;;3.30;;
28629;SDS011;15817;42.130;24.762;2023-05-07T01:22:56;4.80;;;3.20;;
28629;SDS011;15817;42.130;24.762;2023-05-07T01:25:23;6.68;;;3.70;;
28629;SDS011;15817;42.130;24.762;2023-05-07T01:27:53;6.18;;;3.28;;
28629;SDS011;15817;42.130;24.762;2023-05-07T01:30:23;4.93;;;3.53;;
28629;SDS011;15817;42.130;24.762;2023-05-07T01:32:51;6.25;;;3.70;;
28629;SDS011;15817;42.130;24.762;2023-05-07T01:35:22;6.07;;;3.72;;
28629;SDS011;15817;42.130;24.762;2023-05-07T01:37:53;6.70;;;3.60;;
28629;SDS011;15817;42.130;24.762;2023-05-07T01:40:20;6.28;;;3.65;;
28629;SDS011;15817;42.130;24.762;2023-05-07T01:42:46;5.07;;;3.20;;
28629;SDS011;15817;42.130;24.762;2023-05-07T01:45:13;5.18;;;3.72;;
28629;SDS011;15817;42.130;24.762;2023-05-07T01:47:40;5.88;;;3.28;;
28629;SDS011;15817;42.130;24.762;2023-05-07T01:50:06;6.55;;;4.03;;
28629;SDS011;15817;42.130;24.762;2023-05-07T01:52:39;6.80;;;4.15;;
28629;SDS011;15817;42.130;24.762;2023-05-07T01:55:08;7.65;;;4.70;;
28629;SDS011;15817;42.130;24.762;2023-05-07T01:57:50;5.97;;;4.03;;
28629;SDS011;15817;42.130;24.762;2023-05-07T02:00:16;8.35;;;3.95;;
28629;SDS011;15817;42.130;24.762;2023-05-07T02:02:45;7.60;;;3.95;;
28629;SDS011;15817;42.130;24.762;2023-05-07T02:05:26;4.47;;;3.33;;
28629;SDS011;15817;42.130;24.762;2023-05-07T02:08:00;6.80;;;3.88;;
28629;SDS011;15817;42.130;24.762;2023-05-07T02:10:27;4.22;;;3.53;;
28629;SDS011;15817;42.130;24.762;2023-05-07T02:12:53;6.57;;;3.65;;
28629;SDS011;15817;42.130;24.762;2023-05-07T02:15:21;6.18;;;3.42;;
28629;SDS011;15817;42.130;24.762;2023-05-07T02:20:29;9.73;;;3.40;;
28629;SDS011;15817;42.130;24.762;2023-05-07T02:22:55;9.35;;;3.78;;
28629;SDS011;15817;42.130;24.762;2023-05-07T02:25:21;7.45;;;3.85;;
28629;SDS011;15817;42.130;24.762;2023-05-07T02:27:50;7.35;;;4.10;;
28629;SDS011;15817;42.130;24.762;2023-05-07T02:30:17;6.72;;;3.95;;
28629;SDS011;15817;42.130;24.762;2023-05-07T02:32:44;6.88;;;4.40;;
28629;SDS011;15817;42.130;24.762;2023-05-07T02:35:13;6.75;;;4.22;;
28629;SDS011;15817;42.130;24.762;2023-05-07T02:37:58;9.18;;;3.75;;
28629;SDS011;15817;42.130;24.762;2023-05-07T02:40:25;6.93;;;4.18;;
28629;SDS011;15817;42.130;24.762;2023-05-07T02:42:51;6.13;;;4.28;;
28629;SDS011;15817;42.130;24.762;2023-05-07T02:45:17;6.65;;;3.88;;
28629;SDS011;15817;42.130;24.762;2023-05-07T02:47:44;10.75;;;4.40;;
28629;SDS011;15817;42.130;24.762;2023-05-07T02:50:13;7.18;;;4.10;;
28629;SDS011;15817;42.130;24.762;2023-05-07T02:52:40;5.38;;;4.28;;
28629;SDS011;15817;42.130;24.762;2023-05-07T02:55:07;8.52;;;4.38;;
28629;SDS011;15817;42.130;24.762;2023-05-07T02:57:33;7.18;;;4.03;;
28629;SDS011;15817;42.130;24.762;2023-05-07T03:00:06;9.25;;;4.35;;
28629;SDS011;15817;42.130;24.762;2023-05-07T03:02:39;5.70;;;4.47;;
28629;SDS011;15817;42.130;24.762;2023-05-07T03:05:08;4.97;;;4.47;;
28629;SDS011;15817;42.130;24.762;2023-05-07T03:07:38;8.10;;;5.00;;
28629;SDS011;15817;42.130;24.762;2023-05-07T03:10:04;11.93;;;4.70;;
28629;SDS011;15817;42.130;24.762;2023-05-07T03:12:51;8.15;;;5.03;;
28629;SDS011;15817;42.130;24.762;2023-05-07T03:15:17;10.48;;;4.75;;
28629;SDS011;15817;42.130;24.762;2023-05-07T03:20:41;12.77;;;5.32;;
28629;SDS011;15817;42.130;24.762;2023-05-07T03:23:10;8.18;;;5.28;;
28629;SDS011;15817;42.130;24.762;2023-05-07T03:25:38;9.95;;;5.30;;
28629;SDS011;15817;42.130;24.762;2023-05-07T03:28:06;10.15;;;5.07;;
28629;SDS011;15817;42.130;24.762;2023-05-07T03:30:39;11.65;;;5.57;;
28629;SDS011;15817;42.130;24.762;2023-05-07T03:33:07;8.15;;;5.25;;
28629;SDS011;15817;42.130;24.762;2023-05-07T03:35:41;7.95;;;5.18;;
28629;SDS011;15817;42.130;24.762;2023-05-07T03:38:07;9.88;;;5.38;;
28629;SDS011;15817;42.130;24.762;2023-05-07T03:40:37;10.85;;;5.70;;
28629;SDS011;15817;42.130;24.762;2023-05-07T03:43:04;9.57;;;6.03;;
28629;SDS011;15817;42.130;24.762;2023-05-07T03:45:41;13.93;;;6.00;;
28629;SDS011;15817;42.130;24.762;2023-05-07T03:48:13;7.85;;;5.85;;
28629;SDS011;15817;42.130;24.762;2023-05-07T03:50:45;9.85;;;6.45;;
28629;SDS011;15817;42.130;24.762;2023-05-07T03:53:11;10.02;;;6.13;;
28629;SDS011;15817;42.130;24.762;2023-05-07T03:55:41;7.70;;;5.90;;
28629;SDS011;15817;42.130;24.762;2023-05-07T03:58:13;6.75;;;6.07;;
28629;SDS011;15817;42.130;24.762;2023-05-07T04:00:45;10.77;;;6.40;;
28629;SDS011;15817;42.130;24.762;2023-05-07T04:03:18;8.25;;;5.43;;
28629;SDS011;15817;42.130;24.762;2023-05-07T04:05:45;7.05;;;5.95;;
28629;SDS011;15817;42.130;24.762;2023-05-07T04:08:16;8.88;;;5.97;;
28629;SDS011;15817;42.130;24.762;2023-05-07T04:10:49;10.25;;;6.30;;
28629;SDS011;15817;42.130;24.762;2023-05-07T04:13:23;9.80;;;5.88;;
28629;SDS011;15817;42.130;24.762;2023-05-07T04:16:00;9.25;;;6.20;;
28629;SDS011;15817;42.130;24.762;2023-05-07T04:18:28;7.63;;;6.00;;
28629;SDS011;15817;42.130;24.762;2023-05-07T04:24:33;9.77;;;5.78;;
28629;SDS011;15817;42.130;24.762;2023-05-07T04:27:13;7.43;;;5.38;;
28629;SDS011;15817;42.130;24.762;2023-05-07T04:29:39;7.18;;;5.50;;
28629;SDS011;15817;42.130;24.762;2023-05-07T04:32:12;9.68;;;6.05;;
28629;SDS011;15817;42.130;24.762;2023-05-07T04:34:41;9.05;;;6.15;;
28629;SDS011;15817;42.130;24.762;2023-05-07T04:37:10;8.80;;;6.05;;
28629;SDS011;15817;42.130;24.762;2023-05-07T04:39:38;10.23;;;6.35;;
28629;SDS011;15817;42.130;24.762;2023-05-07T04:44:55;7.47;;;5.38;;
28629;SDS011;15817;42.130;24.762;2023-05-07T04:47:22;6.95;;;5.63;;
28629;SDS011;15817;42.130;24.762;2023-05-07T04:49:49;6.82;;;5.38;;
28629;SDS011;15817;42.130;24.762;2023-05-07T04:52:15;9.07;;;5.50;;
28629;SDS011;15817;42.130;24.762;2023-05-07T04:54:47;6.53;;;5.68;;
28629;SDS011;15817;42.130;24.762;2023-05-07T04:57:16;8.45;;;5.57;;
28629;SDS011;15817;42.130;24.762;2023-05-07T04:59:48;10.80;;;6.45;;
28629;SDS011;15817;42.130;24.762;2023-05-07T05:02:14;8.15;;;5.97;;
28629;SDS011;15817;42.130;24.762;2023-05-07T05:04:45;7.03;;;5.90;;
28629;SDS011;15817;42.130;24.762;2023-05-07T05:07:30;8.88;;;6.10;;
28629;SDS011;15817;42.130;24.762;2023-05-07T05:10:07;8.10;;;5.82;;
28629;SDS011;15817;42.130;24.762;2023-05-07T05:12:37;9.15;;;6.03;;
28629;SDS011;15817;42.130;24.762;2023-05-07T05:15:11;6.93;;;5.60;;
28629;SDS011;15817;42.130;24.762;2023-05-07T05:17:38;9.27;;;5.45;;
28629;SDS011;15817;42.130;24.762;2023-05-07T05:20:10;6.63;;;5.35;;
28629;SDS011;15817;42.130;24.762;2023-05-07T05:23:07;9.30;;;5.40;;
28629;SDS011;15817;42.130;24.762;2023-05-07T05:25:33;8.60;;;5.30;;
28629;SDS011;15817;42.130;24.762;2023-05-07T05:28:09;9.73;;;5.85;;
28629;SDS011;15817;42.130;24.762;2023-05-07T05:30:36;6.90;;;5.78;;
28629;SDS011;15817;42.130;24.762;2023-05-07T05:33:02;12.23;;;6.38;;
28629;SDS011;15817;42.130;24.762;2023-05-07T05:35:32;12.32;;;5.93;;
28629;SDS011;15817;42.130;24.762;2023-05-07T05:38:29;7.85;;;5.97;;
28629;SDS011;15817;42.130;24.762;2023-05-07T05:40:58;10.57;;;5.80;;
28629;SDS011;15817;42.130;24.762;2023-05-07T05:43:28;7.20;;;5.65;;
28629;SDS011;15817;42.130;24.762;2023-05-07T05:46:05;6.43;;;5.25;;
28629;SDS011;15817;42.130;24.762;2023-05-07T05:48:43;12.15;;;5.43;;
28629;SDS011;15817;42.130;24.762;2023-05-07T05:51:10;8.05;;;5.63;;
28629;SDS011;15817;42.130;24.762;2023-05-07T05:53:40;7.97;;;5.60;;
28629;SDS011;15817;42.130;24.762;2023-05-07T05:56:24;7.70;;;6.65;;
28629;SDS011;15817;42.130;24.762;2023-05-07T05:59:24;7.47;;;5.80;;
28629;SDS011;15817;42.130;24.762;2023-05-07T06:02:49;12.73;;;5.80;;
28629;SDS011;15817;42.130;24.762;2023-05-07T06:06:12;6.22;;;4.82;;
28629;SDS011;15817;42.130;24.762;2023-05-07T06:08:50;12.23;;;5.68;;
28629;SDS011;15817;42.130;24.762;2023-05-07T06:11:44;10.65;;;5.70;;
28629;SDS011;15817;42.130;24.762;2023-05-07T06:14:20;7.32;;;5.75;;
28629;SDS011;15817;42.130;24.762;2023-05-07T06:16:50;6.55;;;5.38;;
28629;SDS011;15817;42.130;24.762;2023-05-07T06:19:30;9.25;;;5.90;;
28629;SDS011;15817;42.130;24.762;2023-05-07T06:22:07;7.75;;;5.05;;
28629;SDS011;15817;42.130;24.762;2023-05-07T06:25:11;7.32;;;4.57;;
28629;SDS011;15817;42.130;24.762;2023-05-07T06:27:57;7.40;;;5.40;;
28629;SDS011;15817;42.130;24.762;2023-05-07T06:30:47;6.97;;;5.05;;
28629;SDS011;15817;42.130;24.762;2023-05-07T06:33:37;8.13;;;5.57;;
28629;SDS011;15817;42.130;24.762;2023-05-07T06:36:43;11.85;;;5.53;;
28629;SDS011;15817;42.130;24.762;2023-05-07T06:39:41;7.70;;;5.30;;
28629;SDS011;15817;42.130;24.762;2023-05-07T06:43:08;6.93;;;5.03;;
28629;SDS011;15817;42.130;24.762;2023-05-07T06:45:57;9.30;;;5.78;;
28629;SDS011;15817;42.130;24.762;2023-05-07T06:48:36;6.05;;;4.80;;
28629;SDS011;15817;42.130;24.762;2023-05-07T06:54:21;7.97;;;5.60;;
28629;SDS011;15817;42.130;24.762;2023-05-07T06:57:24;8.35;;;5.40;;
28629;SDS011;15817;42.130;24.762;2023-05-07T06:59:50;5.78;;;4.70;;
28629;SDS011;15817;42.130;24.762;2023-05-07T07:16:43;10.75;;;5.68;;
28629;SDS011;15817;42.130;24.762;2023-05-07T07:19:26;8.43;;;5.65;;
28629;SDS011;15817;42.130;24.762;2023-05-07T07:22:03;13.77;;;5.72;;
28629;SDS011;15817;42.130;24.762;2023-05-07T07:24:40;11.25;;;5.43;;
28629;SDS011;15817;42.130;24.762;2023-05-07T07:27:17;8.93;;;5.32;;
28629;SDS011;15817;42.130;24.762;2023-05-07T07:30:11;9.02;;;5.28;;
28629;SDS011;15817;42.130;24.762;2023-05-07T07:32:40;8.05;;;5.10;;
28629;SDS011;15817;42.130;24.762;2023-05-07T07:35:09;8.38;;;5.32;;
28629;SDS011;15817;42.130;24.762;2023-05-07T07:37:55;8.18;;;4.95;;
28629;SDS011;15817;42.130;24.762;2023-05-07T07:40:35;8.10;;;5.43;;
28629;SDS011;15817;42.130;24.762;2023-05-07T07:43:01;7.82;;;5.18;;
28629;SDS011;15817;42.130;24.762;2023-05-07T07:45:34;9.98;;;5.35;;
28629;SDS011;15817;42.130;24.762;2023-05-07T07:48:04;8.52;;;5.35;;
28629;SDS011;15817;42.130;24.762;2023-05-07T07:50:34;7.82;;;6.32;;
28629;SDS011;15817;42.130;24.762;2023-05-07T07:53:00;7.22;;;5.20;;
28629;SDS011;15817;42.130;24.762;2023-05-07T07:55:26;10.77;;;5.68;;
28629;SDS011;15817;42.130;24.762;2023-05-07T08:01:43;8.30;;;5.38;;
28629;SDS011;15817;42.130;24.762;2023-05-07T08:04:26;9.10;;;4.53;;
28629;SDS011;15817;42.130;24.762;2023-05-07T08:06:54;8.60;;;4.80;;
28629;SDS011;15817;42.130;24.762;2023-05-07T08:09:51;13.27;;;4.32;;
28629;SDS011;15817;42.130;24.762;2023-05-07T08:12:24;8.77;;;4.63;;
28629;SDS011;15817;42.130;24.762;2023-05-07T08:22:38;10.43;;;3.50;;
28629;SDS011;15817;42.130;24.762;2023-05-07T08:25:22;5.22;;;3.47;;
28629;SDS011;15817;42.130;24.762;2023-05-07T08:31:28;12.02;;;3.80;;
28629;SDS011;15817;42.130;24.762;2023-05-07T08:40:53;5.47;;;3.00;;
28629;SDS011;15817;42.130;24.762;2023-05-07T08:51:13;3.38;;;3.00;;
28629;SDS011;15817;42.130;24.762;2023-05-07T08:53:50;3.47;;;2.60;;
28629;SDS011;15817;42.130;24.762;2023-05-07T08:56:28;6.18;;;2.90;;
28629;SDS011;15817;42.130;24.762;2023-05-07T08:59:00;4.43;;;2.92;;
28629;SDS011;15817;42.130;24.762;2023-05-07T09:04:40;5.47;;;2.78;;
28629;SDS011;15817;42.130;24.762;2023-05-07T09:10:02;4.85;;;2.40;;
28629;SDS011;15817;42.130;24.762;2023-05-07T09:12:31;3.40;;;2.60;;
28629;SDS011;15817;42.130;24.762;2023-05-07T09:15:09;9.50;;;2.45;;
28629;SDS011;15817;42.130;24.762;2023-05-07T09:17:39;3.50;;;1.85;;
28629;SDS011;15817;42.130;24.762;2023-05-07T09:20:19;2.50;;;1.70;;
28629;SDS011;15817;42.130;24.762;2023-05-07T09:22:57;6.57;;;1.80;;
28629;SDS011;15817;42.130;24.762;2023-05-07T09:26:03;1.75;;;1.30;;
28629;SDS011;15817;42.130;24.762;2023-05-07T09:28:42;2.53;;;1.95;;
28629;SDS011;15817;42.130;24.762;2023-05-07T09:31:11;6.00;;;2.17;;
28629;SDS011;15817;42.130;24.762;2023-05-07T09:33:49;3.25;;;2.08;;
28629;SDS011;15817;42.130;24.762;2023-05-07T09:36:29;4.25;;;2.28;;
28629;SDS011;15817;42.130;24.762;2023-05-07T09:41:44;3.72;;;2.20;;
28629;SDS011;15817;42.130;24.762;2023-05-07T09:44:24;4.65;;;2.13;;
28629;SDS011;15817;42.130;24.762;2023-05-07T09:47:18;5.97;;;2.03;;
28629;SDS011;15817;42.130;24.762;2023-05-07T09:49:56;3.50;;;2.00;;
28629;SDS011;15817;42.130;24.762;2023-05-07T09:52:31;3.47;;;2.25;;
28629;SDS011;15817;42.130;24.762;2023-05-07T09:55:03;11.02;;;2.60;;
28629;SDS011;15817;42.130;24.762;2023-05-07T09:57:31;4.55;;;2.40;;
28629;SDS011;15817;42.130;24.762;2023-05-07T10:00:06;2.22;;;1.90;;
28629;SDS011;15817;42.130;24.762;2023-05-07T10:02:52;3.05;;;2.00;;
28629;SDS011;15817;42.130;24.762;2023-05-07T10:05:27;3.47;;;2.20;;
28629;SDS011;15817;42.130;24.762;2023-05-07T10:07:59;3.22;;;2.08;;
28629;SDS011;15817;42.130;24.762;2023-05-07T10:10:29;3.58;;;1.77;;
28629;SDS011;15817;42.130;24.762;2023-05-07T10:12:56;3.05;;;2.17;;
28629;SDS011;15817;42.130;24.762;2023-05-07T10:15:32;8.20;;;2.30;;
28629;SDS011;15817;42.130;24.762;2023-05-07T10:18:01;2.30;;;2.03;;
28629;SDS011;15817;42.130;24.762;2023-05-07T10:20:31;8.32;;;2.28;;
28629;SDS011;15817;42.130;24.762;2023-05-07T10:23:01;3.38;;;2.45;;
28629;SDS011;15817;42.130;24.762;2023-05-07T10:25:35;2.97;;;2.17;;
28629;SDS011;15817;42.130;24.762;2023-05-07T10:28:13;3.47;;;2.40;;
28629;SDS011;15817;42.130;24.762;2023-05-07T10:33:47;3.88;;;2.45;;
28629;SDS011;15817;42.130;24.762;2023-05-07T10:36:24;2.78;;;2.13;;
28629;SDS011;15817;42.130;24.762;2023-05-07T10:38:52;6.30;;;2.30;;
28629;SDS011;15817;42.130;24.762;2023-05-07T10:41:29;3.35;;;2.20;;
28629;SDS011;15817;42.130;24.762;2023-05-07T10:43:55;3.13;;;2.10;;
28629;SDS011;15817;42.130;24.762;2023-05-07T10:46:27;4.65;;;2.28;;
28629;SDS011;15817;42.130;24.762;2023-05-07T10:52:35;3.60;;;2.00;;
28629;SDS011;15817;42.130;24.762;2023-05-07T10:57:57;7.57;;;2.55;;
28629;SDS011;15817;42.130;24.762;2023-05-07T11:01:49;2.78;;;1.83;;
28629;SDS011;15817;42.130;24.762;2023-05-07T11:04:38;3.75;;;1.85;;
28629;SDS011;15817;42.130;24.762;2023-05-07T11:07:26;3.55;;;2.00;;
28629;SDS011;15817;42.130;24.762;2023-05-07T11:10:27;4.90;;;2.03;;
28629;SDS011;15817;42.130;24.762;2023-05-07T11:14:01;2.42;;;1.90;;
28629;SDS011;15817;42.130;24.762;2023-05-07T11:16:49;2.47;;;1.90;;
28629;SDS011;15817;42.130;24.762;2023-05-07T11:22:48;4.18;;;2.00;;
28629;SDS011;15817;42.130;24.762;2023-05-07T11:25:43;4.47;;;2.17;;
28629;SDS011;15817;42.130;24.762;2023-05-07T11:28:22;3.13;;;1.73;;
28629;SDS011;15817;42.130;24.762;2023-05-07T11:34:51;2.90;;;2.40;;
28629;SDS011;15817;42.130;24.762;2023-05-07T11:37:21;4.25;;;2.17;;
28629;SDS011;15817;42.130;24.762;2023-05-07T11:40:08;5.00;;;2.17;;
28629;SDS011;15817;42.130;24.762;2023-05-07T11:45:32;2.78;;;2.10;;
28629;SDS011;15817;42.130;24.762;2023-05-07T11:48:25;3.20;;;2.05;;
28629;SDS011;15817;42.130;24.762;2023-05-07T11:51:42;4.20;;;2.40;;
28629;SDS011;15817;42.130;24.762;2023-05-07T11:54:13;2.80;;;2.00;;
28629;SDS011;15817;42.130;24.762;2023-05-07T11:56:41;5.68;;;2.13;;
28629;SDS011;15817;42.130;24.762;2023-05-07T11:59:19;5.45;;;2.55;;
28629;SDS011;15817;42.130;24.762;2023-05-07T12:02:25;4.53;;;2.72;;
28629;SDS011;15817;42.130;24.762;2023-05-07T12:05:03;4.15;;;1.85;;
28629;SDS011;15817;42.130;24.762;2023-05-07T12:07:30;4.82;;;1.88;;
28629;SDS011;15817;42.130;24.762;2023-05-07T12:10:10;3.05;;;2.13;;
28629;SDS011;15817;42.130;24.762;2023-05-07T12:12:38;5.38;;;2.40;;
28629;SDS011;15817;42.130;24.762;2023-05-07T12:15:13;5.82;;;2.10;;
28629;SDS011;15817;42.130;24.762;2023-05-07T12:17:48;4.80;;;2.40;;
28629;SDS011;15817;42.130;24.762;2023-05-07T12:20:23;3.90;;;1.88;;
28629;SDS011;15817;42.130;24.762;2023-05-07T12:22:57;4.22;;;2.00;;
28629;SDS011;15817;42.130;24.762;2023-05-07T12:28:33;4.45;;;2.15;;
28629;SDS011;15817;42.130;24.762;2023-05-07T12:31:02;5.97;;;2.20;;
28629;SDS011;15817;42.130;24.762;2023-05-07T12:33:29;2.58;;;2.28;;
28629;SDS011;15817;42.130;24.762;2023-05-07T12:46:25;5.30;;;1.92;;
28629;SDS011;15817;42.130;24.762;2023-05-07T12:48:59;2.17;;;1.80;;
28629;SDS011;15817;42.130;24.762;2023-05-07T12:51:34;5.03;;;2.55;;
28629;SDS011;15817;42.130;24.762;2023-05-07T12:54:01;4.32;;;2.00;;
28629;SDS011;15817;42.130;24.762;2023-05-07T12:56:26;3.97;;;2.40;;
28629;SDS011;15817;42.130;24.762;2023-05-07T12:58:57;4.07;;;2.17;;
28629;SDS011;15817;42.130;24.762;2023-05-07T13:01:43;5.38;;;1.75;;
28629;SDS011;15817;42.130;24.762;2023-05-07T13:04:23;2.97;;;1.90;;
28629;SDS011;15817;42.130;24.762;2023-05-07T13:10:41;4.22;;;2.30;;
28629;SDS011;15817;42.130;24.762;2023-05-07T13:13:23;4.53;;;1.83;;
28629;SDS011;15817;42.130;24.762;2023-05-07T13:16:01;3.75;;;1.65;;
28629;SDS011;15817;42.130;24.762;2023-05-07T13:19:01;4.80;;;2.13;;
28629;SDS011;15817;42.130;24.762;2023-05-07T13:21:27;4.30;;;1.85;;
28629;SDS011;15817;42.130;24.762;2023-05-07T13:23:57;6.50;;;1.90;;
28629;SDS011;15817;42.130;24.762;2023-05-07T13:26:37;4.30;;;2.13;;
28629;SDS011;15817;42.130;24.762;2023-05-07T13:29:15;5.50;;;1.77;;
28629;SDS011;15817;42.130;24.762;2023-05-07T13:31:56;4.85;;;1.80;;
28629;SDS011;15817;42.130;24.762;2023-05-07T13:38:08;2.63;;;1.80;;
28629;SDS011;15817;42.130;24.762;2023-05-07T13:40:36;3.03;;;2.05;;
28629;SDS011;15817;42.130;24.762;2023-05-07T13:43:07;3.42;;;1.63;;
28629;SDS011;15817;42.130;24.762;2023-05-07T13:45:49;4.03;;;1.73;;
28629;SDS011;15817;42.130;24.762;2023-05-07T13:48:17;2.80;;;1.67;;
28629;SDS011;15817;42.130;24.762;2023-05-07T13:51:08;3.58;;;1.58;;
28629;SDS011;15817;42.130;24.762;2023-05-07T13:54:00;2.30;;;1.50;;
28629;SDS011;15817;42.130;24.762;2023-05-07T13:56:46;4.60;;;1.83;;
28629;SDS011;15817;42.130;24.762;2023-05-07T13:59:18;2.15;;;1.60;;
28629;SDS011;15817;42.130;24.762;2023-05-07T14:01:47;6.72;;;1.90;;
28629;SDS011;15817;42.130;24.762;2023-05-07T14:10:36;3.03;;;1.55;;
28629;SDS011;15817;42.130;24.762;2023-05-07T14:13:32;2.55;;;1.75;;
28629;SDS011;15817;42.130;24.762;2023-05-07T14:22:44;3.40;;;1.50;;
28629;SDS011;15817;42.130;24.762;2023-05-07T14:25:13;3.80;;;1.60;;
28629;SDS011;15817;42.130;24.762;2023-05-07T14:28:18;2.70;;;1.85;;
28629;SDS011;15817;42.130;24.762;2023-05-07T14:30:49;2.28;;;1.63;;
28629;SDS011;15817;42.130;24.762;2023-05-07T14:33:27;4.78;;;1.90;;
28629;SDS011;15817;42.130;24.762;2023-05-07T14:35:53;3.33;;;2.33;;
28629;SDS011;15817;42.130;24.762;2023-05-07T14:38:23;2.38;;;1.67;;
28629;SDS011;15817;42.130;24.762;2023-05-07T14:41:07;2.58;;;1.40;;
28629;SDS011;15817;42.130;24.762;2023-05-07T14:43:35;3.67;;;1.50;;
28629;SDS011;15817;42.130;24.762;2023-05-07T14:46:01;4.85;;;1.65;;
28629;SDS011;15817;42.130;24.762;2023-05-07T14:48:43;3.40;;;1.70;;
28629;SDS011;15817;42.130;24.762;2023-05-07T14:51:13;3.25;;;1.40;;
28629;SDS011;15817;42.130;24.762;2023-05-07T14:53:43;2.13;;;1.48;;
28629;SDS011;15817;42.130;24.762;2023-05-07T14:56:15;2.95;;;1.70;;
28629;SDS011;15817;42.130;24.762;2023-05-07T14:58:52;2.40;;;1.40;;
28629;SDS011;15817;42.130;24.762;2023-05-07T15:05:09;4.88;;;1.92;;
28629;SDS011;15817;42.130;24.762;2023-05-07T15:56:09;2.80;;;1.80;;
28629;SDS011;15817;42.130;24.762;2023-05-07T15:59:19;3.58;;;1.50;;
28629;SDS011;15817;42.130;24.762;2023-05-07T16:02:05;3.97;;;1.73;;
28629;SDS011;15817;42.130;24.762;2023-05-07T16:08:10;9.52;;;2.20;;
28629;SDS011;15817;42.130;24.762;2023-05-07T16:10:43;2.78;;;1.48;;
28629;SDS011;15817;42.130;24.762;2023-05-07T16:13:17;1.70;;;1.08;;
28629;SDS011;15817;42.130;24.762;2023-05-07T16:15:57;4.53;;;1.50;;
28629;SDS011;15817;42.130;24.762;2023-05-07T16:18:24;3.63;;;1.20;;
28629;SDS011;15817;42.130;24.762;2023-05-07T16:21:08;2.63;;;1.60;;
28629;SDS011;15817;42.130;24.762;2023-05-07T16:23:34;2.22;;;1.45;;
28629;SDS011;15817;42.130;24.762;2023-05-07T16:26:00;3.47;;;1.80;;
28629;SDS011;15817;42.130;24.762;2023-05-07T16:28:34;12.02;;;2.67;;
28629;SDS011;15817;42.130;24.762;2023-05-07T16:31:09;17.60;;;3.58;;
28629;SDS011;15817;42.130;24.762;2023-05-07T16:33:58;4.07;;;2.00;;
28629;SDS011;15817;42.130;24.762;2023-05-07T16:40:45;2.97;;;1.70;;
28629;SDS011;15817;42.130;24.762;2023-05-07T16:43:31;3.88;;;1.73;;
28629;SDS011;15817;42.130;24.762;2023-05-07T16:46:46;3.90;;;2.45;;
28629;SDS011;15817;42.130;24.762;2023-05-07T17:00:44;2.13;;;1.60;;
28629;SDS011;15817;42.130;24.762;2023-05-07T17:18:18;3.03;;;1.83;;
28629;SDS011;15817;42.130;24.762;2023-05-07T17:21:04;3.53;;;1.70;;
28629;SDS011;15817;42.130;24.762;2023-05-07T17:32:12;5.80;;;2.20;;
28629;SDS011;15817;42.130;24.762;2023-05-07T17:47:04;5.45;;;2.10;;
28629;SDS011;15817;42.130;24.762;2023-05-07T17:54:47;4.68;;;2.03;;
28629;SDS011;15817;42.130;24.762;2023-05-07T18:01:57;4.07;;;1.83;;
28629;SDS011;15817;42.130;24.762;2023-05-07T18:09:26;1.90;;;1.38;;
28629;SDS011;15817;42.130;24.762;2023-05-07T18:12:55;6.78;;;2.05;;
28629;SDS011;15817;42.130;24.762;2023-05-07T18:15:37;3.15;;;1.98;;
28629;SDS011;15817;42.130;24.762;2023-05-07T18:18:10;2.63;;;2.42;;
28629;SDS011;15817;42.130;24.762;2023-05-07T18:20:48;2.45;;;2.22;;
28629;SDS011;15817;42.130;24.762;2023-05-07T18:27:14;2.17;;;1.80;;
28629;SDS011;15817;42.130;24.762;2023-05-07T18:29:45;5.50;;;2.13;;
28629;SDS011;15817;42.130;24.762;2023-05-07T18:32:17;9.77;;;2.13;;
28629;SDS011;15817;42.130;24.762;2023-05-07T18:37:43;2.55;;;1.90;;
28629;SDS011;15817;42.130;24.762;2023-05-07T18:40:24;2.53;;;1.60;;
28629;SDS011;15817;42.130;24.762;2023-05-07T18:50:48;4.20;;;2.05;;
28629;SDS011;15817;42.130;24.762;2023-05-07T18:53:46;2.28;;;1.55;;
28629;SDS011;15817;42.130;24.762;2023-05-07T18:56:20;3.25;;;1.90;;
28629;SDS011;15817;42.130;24.762;2023-05-07T18:58:48;3.10;;;1.80;;
28629;SDS011;15817;42.130;24.762;2023-05-07T19:01:22;4.45;;;2.10;;
28629;SDS011;15817;42.130;24.762;2023-05-07T19:03:54;5.70;;;1.92;;
28629;SDS011;15817;42.130;24.762;2023-05-07T19:06:58;3.53;;;2.00;;
28629;SDS011;15817;42.130;24.762;2023-05-07T19:09:38;3.28;;;1.83;;
28629;SDS011;15817;42.130;24.762;2023-05-07T19:12:30;3.83;;;2.25;;
28629;SDS011;15817;42.130;24.762;2023-05-07T19:19:09;2.88;;;1.60;;
28629;SDS011;15817;42.130;24.762;2023-05-07T19:36:15;2.50;;;1.67;;
28629;SDS011;15817;42.130;24.762;2023-05-07T19:39:10;2.80;;;1.88;;
28629;SDS011;15817;42.130;24.762;2023-05-07T19:58:30;2.88;;;1.40;;
28629;SDS011;15817;42.130;24.762;2023-05-07T20:04:19;4.03;;;1.60;;
28629;SDS011;15817;42.130;24.762;2023-05-07T20:06:59;4.97;;;1.50;;
28629;SDS011;15817;42.130;24.762;2023-05-07T20:09:27;3.28;;;1.73;;
28629;SDS011;15817;42.130;24.762;2023-05-07T20:22:52;6.47;;;4.20;;
28629;SDS011;15817;42.130;24.762;2023-05-07T20:25:48;7.80;;;4.85;;
28629;SDS011;15817;42.130;24.762;2023-05-07T20:33:05;9.07;;;5.57;;
28629;SDS011;15817;42.130;24.762;2023-05-07T20:35:47;11.93;;;6.05;;
28629;SDS011;15817;42.130;24.762;2023-05-07T20:38:28;9.98;;;5.30;;
28629;SDS011;15817;42.130;24.762;2023-05-07T20:44:45;8.35;;;3.80;;
28629;SDS011;15817;42.130;24.762;2023-05-07T20:47:43;6.40;;;3.80;;
28629;SDS011;15817;42.130;24.762;2023-05-07T20:51:44;6.82;;;3.63;;